sensor_id;sensor_type;location;lat;lon;timestamp;pressure;altitude;pressure_sealevel;temperature;humidity
37832;BME280;23671;38.090;-122.570;2023-01-26T00:01:27;102542.78;;;13.48;75.35
37832;BME280;23671;38.090;-122.570;2023-01-26T00:03:55;102546.38;;;13.47;75.63
37832;BME280;23671;38.090;-122.570;2023-01-26T00:06:24;102553.59;;;13.45;75.25
37832;BME280;23671;38.090;-122.570;2023-01-26T00:08:54;102559.88;;;13.44;75.55
37832;BME280;23671;38.090;-122.570;2023-01-26T00:11:24;102548.50;;;13.42;75.98
37832;BME280;23671;38.090;-122.570;2023-01-26T00:13:53;102547.63;;;13.41;75.88
37832;BME280;23671;38.090;-122.570;2023-01-26T00:16:20;102552.06;;;13.41;75.84
37832;BME280;23671;38.090;-122.570;2023-01-26T00:18:47;102554.81;;;13.39;75.96
37832;BME280;23671;38.090;-122.570;2023-01-26T00:21:17;102543.25;;;13.40;75.77
37832;BME280;23671;38.090;-122.570;2023-01-26T00:23:45;102545.16;;;13.38;76.14
37832;BME280;23671;38.090;-122.570;2023-01-26T00:26:18;102546.88;;;13.39;75.99
37832;BME280;23671;38.090;-122.570;2023-01-26T00:28:46;102545.25;;;13.37;75.95
37832;BME280;23671;38.090;-122.570;2023-01-26T00:31:19;102544.38;;;13.36;76.13
37832;BME280;23671;38.090;-122.570;2023-01-26T00:33:46;102552.34;;;13.36;76.12
37832;BME280;23671;38.090;-122.570;2023-01-26T00:36:13;102557.66;;;13.36;76.36
37832;BME280;23671;38.090;-122.570;2023-01-26T00:38:41;102554.06;;;13.37;75.66
37832;BME280;23671;38.090;-122.570;2023-01-26T00:41:09;102549.78;;;13.35;75.10
37832;BME280;23671;38.090;-122.570;2023-01-26T00:43:56;102545.34;;;13.35;75.42
37832;BME280;23671;38.090;-122.570;2023-01-26T00:46:23;102555.41;;;13.30;75.59
37832;BME280;23671;38.090;-122.570;2023-01-26T00:48:51;102560.50;;;13.33;75.38
37832;BME280;23671;38.090;-122.570;2023-01-26T00:51:20;102548.28;;;13.31;75.72
37832;BME280;23671;38.090;-122.570;2023-01-26T00:53:48;102561.63;;;13.29;75.22
37832;BME280;23671;38.090;-122.570;2023-01-26T00:56:15;102554.81;;;13.25;75.16
37832;BME280;23671;38.090;-122.570;2023-01-26T00:58:42;102554.06;;;13.23;75.45
37832;BME280;23671;38.090;-122.570;2023-01-26T01:01:11;102567.31;;;13.23;75.77
37832;BME280;23671;38.090;-122.570;2023-01-26T01:03:44;102561.25;;;13.21;75.46
37832;BME280;23671;38.090;-122.570;2023-01-26T01:06:12;102563.13;;;13.19;75.00
37832;BME280;23671;38.090;-122.570;2023-01-26T01:08:39;102568.53;;;13.18;74.49
37832;BME280;23671;38.090;-122.570;2023-01-26T01:11:09;102564.09;;;13.18;74.54
37832;BME280;23671;38.090;-122.570;2023-01-26T01:13:37;102567.69;;;13.17;73.81
37832;BME280;23671;38.090;-122.570;2023-01-26T01:16:10;102564.25;;;13.15;74.40
37832;BME280;23671;38.090;-122.570;2023-01-26T01:18:37;102558.97;;;13.15;73.88
37832;BME280;23671;38.090;-122.570;2023-01-26T01:21:09;102565.41;;;13.11;73.90
37832;BME280;23671;38.090;-122.570;2023-01-26T01:23:37;102562.84;;;13.10;73.57
37832;BME280;23671;38.090;-122.570;2023-01-26T01:26:05;102555.84;;;13.09;74.27
37832;BME280;23671;38.090;-122.570;2023-01-26T01:28:33;102553.28;;;13.07;73.13
37832;BME280;23671;38.090;-122.570;2023-01-26T01:31:08;102556.88;;;13.06;74.01
37832;BME280;23671;38.090;-122.570;2023-01-26T01:33:36;102565.78;;;13.05;73.32
37832;BME280;23671;38.090;-122.570;2023-01-26T01:36:06;102567.69;;;13.03;72.89
37832;BME280;23671;38.090;-122.570;2023-01-26T01:38:33;102559.75;;;13.02;73.55
37832;BME280;23671;38.090;-122.570;2023-01-26T01:41:01;102552.84;;;12.99;72.92
37832;BME280;23671;38.090;-122.570;2023-01-26T01:43:28;102555.69;;;12.96;72.41
37832;BME280;23671;38.090;-122.570;2023-01-26T01:45:56;102554.00;;;12.95;72.79
37832;BME280;23671;38.090;-122.570;2023-01-26T01:48:34;102558.63;;;12.92;72.31
37832;BME280;23671;38.090;-122.570;2023-01-26T01:51:07;102568.38;;;12.91;72.48
37832;BME280;23671;38.090;-122.570;2023-01-26T01:53:41;102560.41;;;12.91;72.44
37832;BME280;23671;38.090;-122.570;2023-01-26T01:56:17;102563.22;;;12.88;72.76
37832;BME280;23671;38.090;-122.570;2023-01-26T01:58:50;102558.97;;;12.86;71.59
37832;BME280;23671;38.090;-122.570;2023-01-26T02:01:18;102567.97;;;12.83;71.41
37832;BME280;23671;38.090;-122.570;2023-01-26T02:03:47;102568.94;;;12.82;72.66
37832;BME280;23671;38.090;-122.570;2023-01-26T02:06:28;102570.81;;;12.80;71.63
37832;BME280;23671;38.090;-122.570;2023-01-26T02:08:58;102565.66;;;12.77;71.68
37832;BME280;23671;38.090;-122.570;2023-01-26T02:11:32;102560.56;;;12.74;72.16
37832;BME280;23671;38.090;-122.570;2023-01-26T02:14:03;102565.97;;;12.72;71.85
37832;BME280;23671;38.090;-122.570;2023-01-26T02:16:31;102567.75;;;12.72;71.56
37832;BME280;23671;38.090;-122.570;2023-01-26T02:18:59;102574.06;;;12.69;72.00
37832;BME280;23671;38.090;-122.570;2023-01-26T02:21:26;102573.22;;;12.69;71.74
37832;BME280;23671;38.090;-122.570;2023-01-26T02:26:25;102576.16;;;12.64;70.96
37832;BME280;23671;38.090;-122.570;2023-01-26T02:28:53;102570.09;;;12.62;71.61
37832;BME280;23671;38.090;-122.570;2023-01-26T02:31:22;102574.63;;;12.60;71.43
37832;BME280;23671;38.090;-122.570;2023-01-26T02:33:50;102571.09;;;12.60;71.41
37832;BME280;23671;38.090;-122.570;2023-01-26T02:36:26;102585.38;;;12.57;71.64
37832;BME280;23671;38.090;-122.570;2023-01-26T02:41:39;102581.19;;;12.53;70.51
37832;BME280;23671;38.090;-122.570;2023-01-26T02:44:26;102574.31;;;12.51;70.75
37832;BME280;23671;38.090;-122.570;2023-01-26T02:46:53;102594.72;;;12.49;70.81
37832;BME280;23671;38.090;-122.570;2023-01-26T02:49:20;102587.78;;;12.46;69.83
37832;BME280;23671;38.090;-122.570;2023-01-26T02:52:06;102585.41;;;12.42;70.71
37832;BME280;23671;38.090;-122.570;2023-01-26T02:54:33;102583.81;;;12.39;70.25
37832;BME280;23671;38.090;-122.570;2023-01-26T02:57:19;102585.84;;;12.34;69.76
37832;BME280;23671;38.090;-122.570;2023-01-26T02:59:46;102590.38;;;12.32;70.27
37832;BME280;23671;38.090;-122.570;2023-01-26T03:02:13;102584.31;;;12.30;70.27
37832;BME280;23671;38.090;-122.570;2023-01-26T03:04:41;102589.88;;;12.26;69.66
37832;BME280;23671;38.090;-122.570;2023-01-26T03:07:09;102591.75;;;12.24;70.06
37832;BME280;23671;38.090;-122.570;2023-01-26T03:09:36;102602.50;;;12.21;70.45
37832;BME280;23671;38.090;-122.570;2023-01-26T03:12:03;102591.31;;;12.16;69.91
37832;BME280;23671;38.090;-122.570;2023-01-26T03:14:30;102601.06;;;12.15;70.04
37832;BME280;23671;38.090;-122.570;2023-01-26T03:16:57;102592.44;;;12.12;69.32
37832;BME280;23671;38.090;-122.570;2023-01-26T03:19:24;102603.22;;;12.09;70.01
37832;BME280;23671;38.090;-122.570;2023-01-26T03:22:10;102602.53;;;12.05;70.09
37832;BME280;23671;38.090;-122.570;2023-01-26T03:24:56;102597.38;;;12.02;69.77
37832;BME280;23671;38.090;-122.570;2023-01-26T03:27:46;102605.50;;;11.99;69.91
37832;BME280;23671;38.090;-122.570;2023-01-26T03:30:15;102601.38;;;11.94;69.75
37832;BME280;23671;38.090;-122.570;2023-01-26T03:32:43;102603.28;;;11.92;69.75
37832;BME280;23671;38.090;-122.570;2023-01-26T03:35:10;102598.16;;;11.88;69.62
37832;BME280;23671;38.090;-122.570;2023-01-26T03:37:48;102604.53;;;11.84;70.12
37832;BME280;23671;38.090;-122.570;2023-01-26T03:40:20;102601.03;;;11.84;69.92
37832;BME280;23671;38.090;-122.570;2023-01-26T03:43:08;102607.47;;;11.80;69.52
37832;BME280;23671;38.090;-122.570;2023-01-26T03:45:54;102601.31;;;11.79;69.21
37832;BME280;23671;38.090;-122.570;2023-01-26T03:48:39;102605.91;;;11.76;69.81
37832;BME280;23671;38.090;-122.570;2023-01-26T03:51:24;102601.63;;;11.73;69.63
37832;BME280;23671;38.090;-122.570;2023-01-26T03:54:10;102597.34;;;11.71;69.06
37832;BME280;23671;38.090;-122.570;2023-01-26T03:56:55;102615.09;;;11.69;69.28
37832;BME280;23671;38.090;-122.570;2023-01-26T03:59:22;102610.84;;;11.66;69.42
37832;BME280;23671;38.090;-122.570;2023-01-26T04:02:04;102612.69;;;11.64;69.09
37832;BME280;23671;38.090;-122.570;2023-01-26T04:04:50;102630.47;;;11.61;69.42
37832;BME280;23671;38.090;-122.570;2023-01-26T04:07:36;102626.22;;;11.58;69.09
37832;BME280;23671;38.090;-122.570;2023-01-26T04:10:22;102619.31;;;11.56;68.79
37832;BME280;23671;38.090;-122.570;2023-01-26T04:12:49;102605.31;;;11.54;69.29
37832;BME280;23671;38.090;-122.570;2023-01-26T04:15:35;102624.81;;;11.51;68.95
37832;BME280;23671;38.090;-122.570;2023-01-26T04:18:21;102617.06;;;11.48;68.89
37832;BME280;23671;38.090;-122.570;2023-01-26T04:21:07;102615.41;;;11.46;68.88
37832;BME280;23671;38.090;-122.570;2023-01-26T04:23:53;102607.81;;;11.40;68.95
37832;BME280;23671;38.090;-122.570;2023-01-26T04:26:28;102605.25;;;11.38;69.24
37832;BME280;23671;38.090;-122.570;2023-01-26T04:29:07;102605.44;;;11.35;69.25
37832;BME280;23671;38.090;-122.570;2023-01-26T04:31:35;102611.81;;;11.31;69.01
37832;BME280;23671;38.090;-122.570;2023-01-26T04:34:04;102618.09;;;11.29;68.98
37832;BME280;23671;38.090;-122.570;2023-01-26T04:36:32;102619.28;;;11.23;69.17
37832;BME280;23671;38.090;-122.570;2023-01-26T04:39:00;102609.69;;;11.21;69.33
37832;BME280;23671;38.090;-122.570;2023-01-26T04:41:29;102623.09;;;11.18;69.20
37832;BME280;23671;38.090;-122.570;2023-01-26T04:43:56;102622.31;;;11.16;69.25
37832;BME280;23671;38.090;-122.570;2023-01-26T04:46:23;102618.13;;;11.12;69.14
37832;BME280;23671;38.090;-122.570;2023-01-26T04:48:51;102631.34;;;11.12;69.14
37832;BME280;23671;38.090;-122.570;2023-01-26T04:51:19;102616.56;;;11.08;69.03
37832;BME280;23671;38.090;-122.570;2023-01-26T04:53:47;102625.50;;;11.05;69.09
37832;BME280;23671;38.090;-122.570;2023-01-26T04:56:22;102618.50;;;11.04;69.42
37832;BME280;23671;38.090;-122.570;2023-01-26T04:58:50;102619.50;;;11.02;68.99
37832;BME280;23671;38.090;-122.570;2023-01-26T05:01:17;102632.81;;;11.00;69.04
37832;BME280;23671;38.090;-122.570;2023-01-26T05:03:45;102625.75;;;11.01;69.06
37832;BME280;23671;38.090;-122.570;2023-01-26T05:06:12;102633.75;;;10.99;68.96
37832;BME280;23671;38.090;-122.570;2023-01-26T05:08:40;102636.53;;;10.96;68.97
37832;BME280;23671;38.090;-122.570;2023-01-26T05:11:07;102643.59;;;10.95;68.75
37832;BME280;23671;38.090;-122.570;2023-01-26T05:13:34;102641.13;;;10.92;68.74
37832;BME280;23671;38.090;-122.570;2023-01-26T05:16:02;102648.28;;;10.90;68.99
37832;BME280;23671;38.090;-122.570;2023-01-26T05:18:30;102651.78;;;10.91;68.88
37832;BME280;23671;38.090;-122.570;2023-01-26T05:20:57;102644.75;;;10.90;68.97
37832;BME280;23671;38.090;-122.570;2023-01-26T05:23:24;102659.94;;;10.86;68.98
37832;BME280;23671;38.090;-122.570;2023-01-26T05:25:51;102655.63;;;10.84;68.71
37832;BME280;23671;38.090;-122.570;2023-01-26T05:28:18;102650.34;;;10.84;68.85
37832;BME280;23671;38.090;-122.570;2023-01-26T05:30:46;102638.16;;;10.81;68.54
37832;BME280;23671;38.090;-122.570;2023-01-26T05:33:13;102651.44;;;10.80;68.75
37832;BME280;23671;38.090;-122.570;2023-01-26T05:35:41;102653.28;;;10.78;68.95
37832;BME280;23671;38.090;-122.570;2023-01-26T05:38:08;102665.75;;;10.76;68.60
37832;BME280;23671;38.090;-122.570;2023-01-26T05:40:35;102659.69;;;10.74;68.72
37832;BME280;23671;38.090;-122.570;2023-01-26T05:43:03;102652.66;;;10.73;68.73
37832;BME280;23671;38.090;-122.570;2023-01-26T05:45:30;102661.59;;;10.70;68.61
37832;BME280;23671;38.090;-122.570;2023-01-26T05:47:57;102672.25;;;10.69;68.69
37832;BME280;23671;38.090;-122.570;2023-01-26T05:50:24;102658.25;;;10.67;68.21
37832;BME280;23671;38.090;-122.570;2023-01-26T05:52:51;102673.25;;;10.66;68.48
37832;BME280;23671;38.090;-122.570;2023-01-26T05:55:18;102669.75;;;10.66;68.68
37832;BME280;23671;38.090;-122.570;2023-01-26T05:57:45;102669.06;;;10.62;68.38
37832;BME280;23671;38.090;-122.570;2023-01-26T06:00:13;102677.03;;;10.61;68.47
37832;BME280;23671;38.090;-122.570;2023-01-26T06:02:40;102683.38;;;10.57;68.53
37832;BME280;23671;38.090;-122.570;2023-01-26T06:05:08;102681.69;;;10.56;68.37
37832;BME280;23671;38.090;-122.570;2023-01-26T06:07:35;102675.63;;;10.54;68.30
37832;BME280;23671;38.090;-122.570;2023-01-26T06:10:03;102679.22;;;10.53;68.49
37832;BME280;23671;38.090;-122.570;2023-01-26T06:12:30;102676.00;;;10.46;68.51
37832;BME280;23671;38.090;-122.570;2023-01-26T06:15:05;102683.06;;;10.46;68.24
37832;BME280;23671;38.090;-122.570;2023-01-26T06:17:32;102679.72;;;10.42;68.59
37832;BME280;23671;38.090;-122.570;2023-01-26T06:19:59;102684.19;;;10.40;68.78
37832;BME280;23671;38.090;-122.570;2023-01-26T06:22:26;102680.94;;;10.35;68.40
37832;BME280;23671;38.090;-122.570;2023-01-26T06:24:53;102678.41;;;10.32;68.52
37832;BME280;23671;38.090;-122.570;2023-01-26T06:27:20;102678.41;;;10.32;68.70
37832;BME280;23671;38.090;-122.570;2023-01-26T06:29:47;102686.25;;;10.34;69.21
37832;BME280;23671;38.090;-122.570;2023-01-26T06:32:14;102677.44;;;10.35;68.91
37832;BME280;23671;38.090;-122.570;2023-01-26T06:34:41;102674.16;;;10.30;68.84
37832;BME280;23671;38.090;-122.570;2023-01-26T06:37:09;102689.22;;;10.28;68.92
37832;BME280;23671;38.090;-122.570;2023-01-26T06:39:36;102671.66;;;10.27;68.56
37832;BME280;23671;38.090;-122.570;2023-01-26T06:42:03;102679.72;;;10.24;68.87
37832;BME280;23671;38.090;-122.570;2023-01-26T06:44:30;102676.28;;;10.22;68.62
37832;BME280;23671;38.090;-122.570;2023-01-26T06:46:57;102686.97;;;10.19;68.81
37832;BME280;23671;38.090;-122.570;2023-01-26T06:49:24;102669.53;;;10.16;68.65
37832;BME280;23671;38.090;-122.570;2023-01-26T06:51:56;102686.25;;;10.15;68.67
37832;BME280;23671;38.090;-122.570;2023-01-26T06:54:24;102681.06;;;10.14;68.77
37832;BME280;23671;38.090;-122.570;2023-01-26T06:56:51;102684.69;;;10.11;68.64
37832;BME280;23671;38.090;-122.570;2023-01-26T06:59:19;102688.28;;;10.10;68.61
37832;BME280;23671;38.090;-122.570;2023-01-26T07:01:47;102691.88;;;10.07;68.71
37832;BME280;23671;38.090;-122.570;2023-01-26T07:04:15;102701.56;;;10.07;68.78
37832;BME280;23671;38.090;-122.570;2023-01-26T07:06:43;102702.56;;;10.04;69.07
37832;BME280;23671;38.090;-122.570;2023-01-26T07:09:11;102703.47;;;10.03;68.56
37832;BME280;23671;38.090;-122.570;2023-01-26T07:11:38;102699.97;;;10.03;68.79
37832;BME280;23671;38.090;-122.570;2023-01-26T07:14:05;102700.06;;;10.01;68.53
37832;BME280;23671;38.090;-122.570;2023-01-26T07:16:32;102703.63;;;10.00;68.87
37832;BME280;23671;38.090;-122.570;2023-01-26T07:18:59;102699.25;;;9.99;68.95
37832;BME280;23671;38.090;-122.570;2023-01-26T07:21:26;102701.13;;;9.97;68.56
37832;BME280;23671;38.090;-122.570;2023-01-26T07:23:55;102704.69;;;9.96;68.73
37832;BME280;23671;38.090;-122.570;2023-01-26T07:26:22;102710.03;;;9.95;69.09
37832;BME280;23671;38.090;-122.570;2023-01-26T07:28:49;102707.47;;;9.93;68.54
37832;BME280;23671;38.090;-122.570;2023-01-26T07:31:16;102711.94;;;9.91;68.99
37832;BME280;23671;38.090;-122.570;2023-01-26T07:33:43;102697.91;;;9.91;68.61
37832;BME280;23671;38.090;-122.570;2023-01-26T07:36:10;102706.03;;;9.86;68.98
37832;BME280;23671;38.090;-122.570;2023-01-26T07:38:38;102695.56;;;9.85;68.94
37832;BME280;23671;38.090;-122.570;2023-01-26T07:41:07;102711.41;;;9.83;68.66
37832;BME280;23671;38.090;-122.570;2023-01-26T07:43:36;102708.78;;;9.83;69.00
37832;BME280;23671;38.090;-122.570;2023-01-26T07:46:03;102708.03;;;9.81;68.68
37832;BME280;23671;38.090;-122.570;2023-01-26T07:48:31;102706.28;;;9.80;68.54
37832;BME280;23671;38.090;-122.570;2023-01-26T07:51:01;102712.50;;;9.79;68.79
37832;BME280;23671;38.090;-122.570;2023-01-26T07:53:29;102724.84;;;9.79;68.63
37832;BME280;23671;38.090;-122.570;2023-01-26T07:56:11;102717.03;;;9.76;68.59
37832;BME280;23671;38.090;-122.570;2023-01-26T07:58:38;102714.47;;;9.74;69.03
37832;BME280;23671;38.090;-122.570;2023-01-26T08:01:15;102715.41;;;9.73;69.21
37832;BME280;23671;38.090;-122.570;2023-01-26T08:03:42;102713.69;;;9.72;69.14
37832;BME280;23671;38.090;-122.570;2023-01-26T08:06:11;102726.00;;;9.72;68.62
37832;BME280;23671;38.090;-122.570;2023-01-26T08:08:39;102729.66;;;9.69;69.03
37832;BME280;23671;38.090;-122.570;2023-01-26T08:11:07;102733.19;;;9.68;68.80
37832;BME280;23671;38.090;-122.570;2023-01-26T08:13:34;102734.06;;;9.69;69.13
37832;BME280;23671;38.090;-122.570;2023-01-26T08:16:06;102729.78;;;9.66;68.92
37832;BME280;23671;38.090;-122.570;2023-01-26T08:18:38;102728.16;;;9.64;68.95
37832;BME280;23671;38.090;-122.570;2023-01-26T08:21:05;102724.72;;;9.62;69.28
37832;BME280;23671;38.090;-122.570;2023-01-26T08:23:33;102733.59;;;9.59;69.34
37832;BME280;23671;38.090;-122.570;2023-01-26T08:26:09;102732.75;;;9.59;68.95
37832;BME280;23671;38.090;-122.570;2023-01-26T08:28:36;102730.97;;;9.59;69.01
37832;BME280;23671;38.090;-122.570;2023-01-26T08:31:06;102723.22;;;9.56;68.82
37832;BME280;23671;38.090;-122.570;2023-01-26T08:33:33;102731.13;;;9.56;69.21
37832;BME280;23671;38.090;-122.570;2023-01-26T08:36:12;102729.53;;;9.52;68.71
37832;BME280;23671;38.090;-122.570;2023-01-26T08:38:39;102723.47;;;9.50;68.81
37832;BME280;23671;38.090;-122.570;2023-01-26T08:41:07;102711.25;;;9.48;68.94
37832;BME280;23671;38.090;-122.570;2023-01-26T08:43:35;102715.66;;;9.47;69.18
37832;BME280;23671;38.090;-122.570;2023-01-26T08:46:02;102717.56;;;9.44;68.74
37832;BME280;23671;38.090;-122.570;2023-01-26T08:48:29;102717.66;;;9.42;68.85
37832;BME280;23671;38.090;-122.570;2023-01-26T08:50:59;102719.41;;;9.42;68.66
37832;BME280;23671;38.090;-122.570;2023-01-26T08:53:28;102725.66;;;9.39;68.99
37832;BME280;23671;38.090;-122.570;2023-01-26T08:55:56;102716.13;;;9.37;69.51
37832;BME280;23671;38.090;-122.570;2023-01-26T08:58:23;102722.25;;;9.37;69.28
37832;BME280;23671;38.090;-122.570;2023-01-26T09:00:50;102719.69;;;9.36;69.17
37832;BME280;23671;38.090;-122.570;2023-01-26T09:03:17;102721.50;;;9.34;69.43
37832;BME280;23671;38.090;-122.570;2023-01-26T09:05:44;102717.19;;;9.33;68.94
37832;BME280;23671;38.090;-122.570;2023-01-26T09:08:11;102731.34;;;9.30;69.53
37832;BME280;23671;38.090;-122.570;2023-01-26T09:10:38;102726.06;;;9.30;68.65
37832;BME280;23671;38.090;-122.570;2023-01-26T09:13:05;102722.72;;;9.27;68.76
37832;BME280;23671;38.090;-122.570;2023-01-26T09:15:32;102720.94;;;9.27;69.28
37832;BME280;23671;38.090;-122.570;2023-01-26T09:17:59;102710.50;;;9.24;69.24
37832;BME280;23671;38.090;-122.570;2023-01-26T09:20:27;102704.44;;;9.22;68.85
37832;BME280;23671;38.090;-122.570;2023-01-26T09:22:53;102700.09;;;9.21;69.01
37832;BME280;23671;38.090;-122.570;2023-01-26T09:25:21;102706.34;;;9.18;69.29
37832;BME280;23671;38.090;-122.570;2023-01-26T09:27:48;102708.13;;;9.18;68.84
37832;BME280;23671;38.090;-122.570;2023-01-26T09:30:15;102702.84;;;9.18;69.34
37832;BME280;23671;38.090;-122.570;2023-01-26T09:32:42;102689.81;;;9.15;69.16
37832;BME280;23671;38.090;-122.570;2023-01-26T09:35:09;102700.34;;;9.15;69.35
37832;BME280;23671;38.090;-122.570;2023-01-26T09:37:37;102701.31;;;9.12;68.69
37832;BME280;23671;38.090;-122.570;2023-01-26T09:40:05;102696.06;;;9.12;69.02
37832;BME280;23671;38.090;-122.570;2023-01-26T09:48:07;102701.47;;;9.09;68.91
37832;BME280;23671;38.090;-122.570;2023-01-26T09:50:50;102699.75;;;9.08;69.45
37832;BME280;23671;38.090;-122.570;2023-01-26T09:53:43;102699.88;;;9.05;69.65
37832;BME280;23671;38.090;-122.570;2023-01-26T09:56:18;102712.31;;;9.02;69.63
37832;BME280;23671;38.090;-122.570;2023-01-26T09:59:00;102712.25;;;9.03;68.90
37832;BME280;23671;38.090;-122.570;2023-01-26T10:01:37;102716.66;;;9.03;69.00
37832;BME280;23671;38.090;-122.570;2023-01-26T10:04:35;102719.44;;;9.00;68.68
37832;BME280;23671;38.090;-122.570;2023-01-26T10:07:08;102727.41;;;8.98;69.31
37832;BME280;23671;38.090;-122.570;2023-01-26T10:09:37;102725.69;;;8.97;69.20
37832;BME280;23671;38.090;-122.570;2023-01-26T10:15:07;102734.56;;;8.95;68.77
37832;BME280;23671;38.090;-122.570;2023-01-26T10:17:43;102723.28;;;8.91;69.05
37832;BME280;23671;38.090;-122.570;2023-01-26T10:20:17;102726.84;;;8.90;69.43
37832;BME280;23671;38.090;-122.570;2023-01-26T10:23:11;102726.84;;;8.90;69.22
37832;BME280;23671;38.090;-122.570;2023-01-26T10:25:43;102728.63;;;8.90;68.95
37832;BME280;23671;38.090;-122.570;2023-01-26T10:28:29;102722.56;;;8.88;68.75
37832;BME280;23671;38.090;-122.570;2023-01-26T10:30:57;102739.22;;;8.88;69.21
37832;BME280;23671;38.090;-122.570;2023-01-26T10:33:29;102737.50;;;8.87;69.32
37832;BME280;23671;38.090;-122.570;2023-01-26T10:35:59;102730.47;;;8.88;69.11
37832;BME280;23671;38.090;-122.570;2023-01-26T10:41:01;102736.66;;;8.87;69.12
37832;BME280;23671;38.090;-122.570;2023-01-26T10:43:36;102744.59;;;8.85;68.67
37832;BME280;23671;38.090;-122.570;2023-01-26T10:46:20;102740.34;;;8.83;69.09
37832;BME280;23671;38.090;-122.570;2023-01-26T10:48:52;102742.97;;;8.83;68.51
37832;BME280;23671;38.090;-122.570;2023-01-26T10:51:31;102749.06;;;8.83;69.18
37832;BME280;23671;38.090;-122.570;2023-01-26T10:54:25;102748.28;;;8.81;69.33
37832;BME280;23671;38.090;-122.570;2023-01-26T10:57:02;102737.88;;;8.78;69.28
37832;BME280;23671;38.090;-122.570;2023-01-26T10:59:42;102736.94;;;8.79;69.18
37832;BME280;23671;38.090;-122.570;2023-01-26T11:07:40;102727.56;;;8.72;69.26
37832;BME280;23671;38.090;-122.570;2023-01-26T11:12:44;102732.97;;;8.69;68.65
37832;BME280;23671;38.090;-122.570;2023-01-26T11:15:20;102737.38;;;8.69;68.56
37832;BME280;23671;38.090;-122.570;2023-01-26T11:18:00;102722.53;;;8.66;69.12
37832;BME280;23671;38.090;-122.570;2023-01-26T11:20:45;102723.47;;;8.65;68.47
37832;BME280;23671;38.090;-122.570;2023-01-26T11:26:28;102726.22;;;8.62;69.16
37832;BME280;23671;38.090;-122.570;2023-01-26T11:32:05;102723.63;;;8.61;68.51
37832;BME280;23671;38.090;-122.570;2023-01-26T11:43:21;102745.88;;;8.54;68.97
37832;BME280;23671;38.090;-122.570;2023-01-26T11:58:14;102731.28;;;8.45;69.00
37832;BME280;23671;38.090;-122.570;2023-01-26T12:03:50;102733.16;;;8.42;69.15
37832;BME280;23671;38.090;-122.570;2023-01-26T12:06:37;102729.72;;;8.40;69.33
37832;BME280;23671;38.090;-122.570;2023-01-26T12:09:08;102735.00;;;8.40;68.38
37832;BME280;23671;38.090;-122.570;2023-01-26T12:15:03;102743.06;;;8.35;69.05
37832;BME280;23671;38.090;-122.570;2023-01-26T12:18:03;102748.38;;;8.34;69.08
37832;BME280;23671;38.090;-122.570;2023-01-26T12:20:50;102749.34;;;8.31;68.38
37832;BME280;23671;38.090;-122.570;2023-01-26T12:26:25;102756.47;;;8.29;68.79
37832;BME280;23671;38.090;-122.570;2023-01-26T12:29:25;102752.09;;;8.28;68.98
37832;BME280;23671;38.090;-122.570;2023-01-26T12:31:57;102748.66;;;8.26;68.82
37832;BME280;23671;38.090;-122.570;2023-01-26T12:34:28;102754.88;;;8.23;69.07
37832;BME280;23671;38.090;-122.570;2023-01-26T12:37:25;102753.16;;;8.22;68.32
37832;BME280;23671;38.090;-122.570;2023-01-26T12:40:28;102750.59;;;8.21;68.72
37832;BME280;23671;38.090;-122.570;2023-01-26T12:46:08;102765.66;;;8.17;68.62
37832;BME280;23671;38.090;-122.570;2023-01-26T12:48:40;102770.19;;;8.12;68.98
37832;BME280;23671;38.090;-122.570;2023-01-26T12:51:34;102781.53;;;8.14;68.91
37832;BME280;23671;38.090;-122.570;2023-01-26T12:54:15;102782.38;;;8.15;68.30
37832;BME280;23671;38.090;-122.570;2023-01-26T12:56:51;102790.34;;;8.13;69.00
37832;BME280;23671;38.090;-122.570;2023-01-26T12:59:40;102790.44;;;8.10;68.78
37832;BME280;23671;38.090;-122.570;2023-01-26T13:02:25;102792.25;;;8.08;68.77
37832;BME280;23671;38.090;-122.570;2023-01-26T13:04:53;102793.88;;;8.12;68.85
37832;BME280;23671;38.090;-122.570;2023-01-26T13:07:38;102793.19;;;8.07;68.26
37832;BME280;23671;38.090;-122.570;2023-01-26T13:15:20;102790.66;;;8.04;68.78
37832;BME280;23671;38.090;-122.570;2023-01-26T13:17:55;102796.03;;;8.01;69.01
37832;BME280;23671;38.090;-122.570;2023-01-26T13:22:55;102796.25;;;7.95;68.82
37832;BME280;23671;38.090;-122.570;2023-01-26T13:25:31;102803.22;;;7.96;68.58
37832;BME280;23671;38.090;-122.570;2023-01-26T13:28:03;102807.69;;;7.94;68.61
37832;BME280;23671;38.090;-122.570;2023-01-26T13:30:45;102803.31;;;7.93;68.47
37832;BME280;23671;38.090;-122.570;2023-01-26T13:33:14;102807.78;;;7.91;68.82
37832;BME280;23671;38.090;-122.570;2023-01-26T13:35:43;102818.44;;;7.88;68.25
37832;BME280;23671;38.090;-122.570;2023-01-26T13:40:47;102826.34;;;7.87;68.25
37832;BME280;23671;38.090;-122.570;2023-01-26T13:46:12;102838.84;;;7.80;68.44
37832;BME280;23671;38.090;-122.570;2023-01-26T13:48:49;102844.19;;;7.77;68.23
37832;BME280;23671;38.090;-122.570;2023-01-26T13:51:24;102862.59;;;7.79;68.81
37832;BME280;23671;38.090;-122.570;2023-01-26T13:54:05;102859.97;;;7.77;68.71
37832;BME280;23671;38.090;-122.570;2023-01-26T13:56:38;102866.09;;;7.78;68.45
37832;BME280;23671;38.090;-122.570;2023-01-26T14:01:43;102865.41;;;7.73;68.41
37832;BME280;23671;38.090;-122.570;2023-01-26T14:06:53;102862.13;;;7.66;68.48
37832;BME280;23671;38.090;-122.570;2023-01-26T14:09:22;102876.19;;;7.65;68.48
37832;BME280;23671;38.090;-122.570;2023-01-26T14:12:02;102866.69;;;7.61;68.32